Time;durP1;ratioP1;P1;durP2;ratioP2;P2;SDS_P1;SDS_P2;PMS_P1;PMS_P2;Temp;Humidity;BMP_temperature;BMP_pressure;BME280_temperature;BME280_humidity;BME280_pressure;Samples;Min_cycle;Max_cycle;Signal;HPM_P1;HPM_P2
2022/11/23 00:01:34;;;;;;;5.50;2.37;;;;;;;6.81;81.42;99031.25;4982358;28;20229;-69
2022/11/23 00:04:03;;;;;;;5.83;2.20;;;;;;;6.74;81.66;99026.78;4982895;28;20214;-69
2022/11/23 00:06:30;;;;;;;6.27;2.07;;;;;;;6.74;82.03;99032.94;4984143;28;20235;-67
2022/11/23 00:08:56;;;;;;;5.27;2.10;;;;;;;6.75;81.96;99026.81;4987179;28;20255;-68
2022/11/23 00:11:24;;;;;;;6.83;2.23;;;;;;;6.71;82.31;99025.03;4989907;28;20240;-69
2022/11/23 00:13:51;;;;;;;5.57;2.10;;;;;;;6.71;82.40;99027.66;4990782;28;20295;-68
2022/11/23 00:16:22;;;;;;;7.17;2.30;;;;;;;6.71;82.29;99025.03;4986416;28;20323;-68
2022/11/23 00:18:52;;;;;;;7.93;2.73;;;;;;;6.74;82.34;99025.03;4978919;28;20624;-68
2022/11/23 00:21:20;;;;;;;4.10;1.93;;;;;;;6.82;82.20;99031.25;4987555;28;20224;-68
2022/11/23 00:23:47;;;;;;;9.90;2.40;;;;;;;6.74;82.17;99018.91;4991509;28;20197;-68
2022/11/23 00:26:15;;;;;;;8.43;2.67;;;;;;;6.73;82.45;99025.91;4989161;28;20351;-68
2022/11/23 00:28:42;;;;;;;5.50;2.20;;;;;;;6.81;81.87;99023.38;4989169;28;20200;-68
2022/11/23 00:31:10;;;;;;;6.73;2.33;;;;;;;6.85;81.70;99025.13;4989498;28;20534;-67
2022/11/23 00:33:37;;;;;;;4.07;2.27;;;;;;;6.85;81.86;99033.03;4990810;28;20223;-68
2022/11/23 00:36:10;;;;;;;7.70;2.43;;;;;;;6.81;81.74;99021.63;4985498;28;20769;-68
2022/11/23 00:38:37;;;;;;;7.97;2.20;;;;;;;6.86;81.63;99030.41;4986192;28;20325;-68
2022/11/23 00:41:07;;;;;;;7.77;2.23;;;;;;;6.80;81.93;99025.09;4990110;28;20267;-67
2022/11/23 00:43:34;;;;;;;6.03;2.10;;;;;;;6.80;81.52;99018.94;4986833;28;20273;-68
2022/11/23 00:46:10;;;;;;;4.93;1.90;;;;;;;6.72;82.14;99011.00;4989746;28;20874;-68
2022/11/23 00:48:37;;;;;;;9.07;2.20;;;;;;;6.79;82.01;99020.69;4987308;28;20639;-68
2022/11/23 00:51:05;;;;;;;4.60;1.93;;;;;;;6.76;82.41;99031.19;4989306;28;20247;-68
2022/11/23 00:53:32;;;;;;;4.77;2.10;;;;;;;6.74;82.30;99018.91;4989546;28;20224;-68
2022/11/23 00:55:58;;;;;;;7.00;2.30;;;;;;;6.82;81.71;99022.50;4988461;28;20291;-65
2022/11/23 00:58:25;;;;;;;4.80;2.30;;;;;;;6.81;81.92;99026.00;4990017;28;20267;-67
2022/11/23 01:01:12;;;;;;;5.67;2.27;;;;;;;6.80;81.95;99025.09;4982749;28;20236;-69
2022/11/23 01:03:42;;;;;;;6.63;2.40;;;;;;;6.78;82.02;99025.94;4989635;28;20236;-67
2022/11/23 01:06:15;;;;;;;7.37;2.40;;;;;;;6.71;81.71;99011.00;4990004;28;20221;-68
2022/11/23 01:08:42;;;;;;;7.23;2.63;;;;;;;6.78;82.13;99018.06;4990362;28;20280;-68
2022/11/23 01:11:11;;;;;;;7.40;2.17;;;;;;;6.81;82.16;99034.78;4988028;28;20308;-68
2022/11/23 01:13:39;;;;;;;6.77;2.60;;;;;;;6.78;82.02;99029.47;4990472;28;20220;-66
2022/11/23 01:16:15;;;;;;;4.53;2.80;;;;;;;6.79;82.18;99036.47;4989420;28;20224;-65
2022/11/23 01:18:53;;;;;;;4.90;2.37;;;;;;;6.86;81.77;99046.19;4989984;28;20687;-68
2022/11/23 01:21:19;;;;;;;11.33;2.10;;;;;;;6.83;82.03;99038.28;4989114;28;20285;-67
2022/11/23 01:23:46;;;;;;;6.63;2.30;;;;;;;6.87;81.86;99037.44;4988261;28;20283;-67
2022/11/23 01:26:12;;;;;;;9.43;2.20;;;;;;;6.89;81.66;99046.22;4989074;28;20217;-67
2022/11/23 01:28:40;;;;;;;6.60;2.57;;;;;;;6.98;81.53;99036.63;4989739;28;20197;-68
2022/11/23 01:31:12;;;;;;;7.27;2.43;;;;;;;6.91;81.51;99040.97;4988446;28;20201;-68
2022/11/23 01:33:41;;;;;;;6.53;2.30;;;;;;;6.89;81.73;99048.84;4988053;28;20312;-68
2022/11/23 01:36:11;;;;;;;5.70;2.30;;;;;;;6.98;81.53;99055.03;4986950;28;20221;-67
2022/11/23 01:38:38;;;;;;;5.03;1.80;;;;;;;6.91;82.06;99043.59;4988535;28;20197;-68
2022/11/23 01:41:07;;;;;;;7.57;2.43;;;;;;;6.97;81.73;99056.78;4988776;28;20244;-69
2022/11/23 01:43:34;;;;;;;6.60;2.23;;;;;;;6.98;81.67;99055.91;4989366;28;20193;-68
2022/11/23 01:46:02;;;;;;;9.47;2.30;;;;;;;7.01;81.44;99050.66;4989196;28;20288;-68
2022/11/23 01:48:37;;;;;;;7.37;2.30;;;;;;;7.02;81.52;99056.81;4985649;28;20207;-68
2022/11/23 01:51:08;;;;;;;8.40;2.90;;;;;;;7.12;81.24;99059.50;4988979;28;20197;-68
2022/11/23 01:53:36;;;;;;;4.97;2.40;;;;;;;7.10;81.18;99053.34;4990055;28;20216;-68
2022/11/23 01:56:05;;;;;;;6.57;2.30;;;;;;;7.07;80.98;99062.97;4987602;28;20218;-68
2022/11/23 01:58:35;;;;;;;4.60;2.20;;;;;;;7.02;81.27;99054.19;4988891;28;20295;-68
2022/11/23 02:01:02;;;;;;;6.67;2.73;;;;;;;7.05;81.31;99062.97;4984600;28;20684;-68
2022/11/23 02:03:33;;;;;;;6.43;2.10;;;;;;;7.01;81.56;99062.94;4989037;28;20216;-68
2022/11/23 02:06:02;;;;;;;9.13;2.40;;;;;;;6.97;81.90;99058.53;4982364;28;20287;-67
2022/11/23 02:08:30;;;;;;;6.03;2.50;;;;;;;6.97;82.07;99059.41;4985086;28;20640;-68
2022/11/23 02:10:57;;;;;;;6.37;2.60;;;;;;;6.96;82.22;99056.78;4987833;28;20202;-67
2022/11/23 02:16:32;;;;;;;7.53;2.53;;;;;;;6.95;82.44;99058.53;5531557;23;20232;-63
2022/11/23 02:18:59;;;;;;;5.80;2.47;;;;;;;6.97;82.45;99062.06;4957935;28;20765;-63
2022/11/23 02:21:25;;;;;;;5.43;2.50;;;;;;;6.95;82.65;99055.91;4966448;28;20668;-64
2022/11/23 02:24:00;;;;;;;10.90;2.70;;;;;;;6.85;82.87;99056.72;4965202;28;20193;-64
2022/11/23 02:26:29;;;;;;;4.87;2.63;;;;;;;6.81;83.34;99053.19;4967741;28;20447;-64
2022/11/23 02:29:23;;;;;;;4.13;2.50;;;;;;;6.74;82.93;99050.47;4968966;28;20275;-64
2022/11/23 02:31:50;;;;;;;8.67;2.90;;;;;;;6.66;83.43;99053.06;4963229;28;20290;-65
2022/11/23 02:34:17;;;;;;;5.37;2.50;;;;;;;6.66;84.27;99049.53;4965558;28;20201;-65
2022/11/23 02:36:49;;;;;;;6.00;2.77;;;;;;;6.59;84.25;99049.50;4967400;28;20307;-65
2022/11/23 02:39:41;;;;;;;8.00;3.00;;;;;;;6.72;83.89;99060.09;4968677;28;20203;-65
2022/11/23 02:42:07;;;;;;;7.20;2.57;;;;;;;6.66;84.03;99049.53;4967792;28;20690;-65
2022/11/23 02:45:31;;;;;;;6.73;3.00;;;;;;;6.65;84.51;99063.56;4968576;28;20208;-65
2022/11/23 02:47:58;;;;;;;7.93;2.70;;;;;;;6.63;84.64;99053.03;4910769;29;20527;-65
2022/11/23 02:50:24;;;;;;;6.60;3.00;;;;;;;6.67;84.66;99054.81;4907761;29;20211;-65
2022/11/23 02:52:51;;;;;;;10.90;2.80;;;;;;;6.64;84.61;99056.53;4936800;28;20222;-65
2022/11/23 02:55:17;;;;;;;7.23;2.60;;;;;;;6.65;84.78;99050.41;4969007;28;20205;-65
2022/11/23 02:57:44;;;;;;;6.03;2.30;;;;;;;6.77;84.51;99053.13;4967971;28;20308;-65
2022/11/23 03:00:11;;;;;;;8.03;2.50;;;;;;;6.77;84.32;99055.75;4968306;28;20283;-66
2022/11/23 03:02:38;;;;;;;9.00;2.67;;;;;;;6.78;83.82;99044.34;4968926;28;20203;-65
2022/11/23 03:05:05;;;;;;;6.10;2.60;;;;;;;6.86;83.59;99054.09;4966865;28;20477;-66
2022/11/23 03:07:31;;;;;;;4.27;2.33;;;;;;;6.88;83.50;99046.22;4966304;28;20276;-66
2022/11/23 03:09:58;;;;;;;5.83;2.30;;;;;;;6.88;83.26;99038.31;4968031;28;20284;-65
2022/11/23 03:12:24;;;;;;;7.90;2.40;;;;;;;6.89;82.89;99054.13;4969515;28;20224;-65
2022/11/23 03:14:51;;;;;;;9.90;2.60;;;;;;;6.87;82.97;99034.81;4967141;28;20204;-65
2022/11/23 03:17:17;;;;;;;10.70;2.60;;;;;;;6.87;83.06;99047.09;4972020;28;20284;-65
2022/11/23 03:19:44;;;;;;;7.63;2.47;;;;;;;6.88;83.32;99047.09;4970926;28;20680;-65
2022/11/23 03:22:10;;;;;;;7.33;2.50;;;;;;;6.91;83.18;99056.75;4972282;28;20679;-65
2022/11/23 03:24:36;;;;;;;9.00;2.40;;;;;;;6.88;83.33;99051.47;4971869;28;20196;-65
2022/11/23 03:27:03;;;;;;;5.53;2.57;;;;;;;6.88;83.11;99048.84;4972666;28;20217;-65
2022/11/23 03:29:29;;;;;;;8.60;2.53;;;;;;;6.90;83.33;99055.00;4970288;28;20280;-65
2022/11/23 03:31:56;;;;;;;8.03;2.43;;;;;;;6.83;83.20;99043.56;4971333;28;20194;-65
2022/11/23 03:34:23;;;;;;;6.87;2.50;;;;;;;6.88;83.12;99047.09;4972273;28;20295;-65
2022/11/23 03:36:49;;;;;;;7.13;2.53;;;;;;;6.88;83.33;99059.38;4971013;28;20330;-65
2022/11/23 03:39:15;;;;;;;7.67;2.87;;;;;;;6.86;83.38;99053.22;4969683;28;20198;-65
2022/11/23 03:41:42;;;;;;;7.93;2.30;;;;;;;6.85;83.39;99060.22;4972369;28;20657;-65
2022/11/23 03:44:08;;;;;;;6.53;2.57;;;;;;;6.89;83.42;99058.50;4971543;28;20280;-66
2022/11/23 03:46:34;;;;;;;7.67;2.50;;;;;;;6.89;83.48;99053.22;4972743;28;20308;-66
2022/11/23 03:49:01;;;;;;;8.10;2.40;;;;;;;6.94;83.53;99062.03;4968086;28;20729;-66
2022/11/23 03:51:27;;;;;;;7.70;2.50;;;;;;;6.88;83.66;99049.72;4954396;28;20748;-66
2022/11/23 03:53:54;;;;;;;5.37;2.23;;;;;;;6.89;83.58;99055.88;4971914;28;20257;-66
2022/11/23 03:56:20;;;;;;;6.87;2.60;;;;;;;6.88;83.47;99054.97;4970521;28;20392;-65
2022/11/23 03:58:46;;;;;;;6.60;2.37;;;;;;;6.91;83.31;99051.50;4971129;28;20745;-66
2022/11/23 04:01:13;;;;;;;6.43;2.63;;;;;;;6.90;83.65;99055.00;4969259;28;20666;-66
2022/11/23 04:03:39;;;;;;;7.50;2.33;;;;;;;6.90;83.68;99058.50;4970133;28;20637;-66
2022/11/23 04:06:06;;;;;;;7.43;2.10;;;;;;;6.88;83.75;99056.72;4971859;28;20225;-65
2022/11/23 04:08:32;;;;;;;8.00;2.90;;;;;;;6.73;83.99;99030.28;4969805;28;20244;-66
2022/11/23 04:10:59;;;;;;;6.90;2.30;;;;;;;6.89;83.98;99062.00;4970579;28;20282;-66
2022/11/23 04:13:25;;;;;;;7.67;2.83;;;;;;;6.95;83.50;99055.00;4970097;28;20313;-66
2022/11/23 04:15:52;;;;;;;8.23;2.57;;;;;;;6.97;83.50;99063.81;4969378;28;20254;-66
2022/11/23 04:18:18;;;;;;;5.77;2.50;;;;;;;6.96;83.43;99068.19;4971065;28;20206;-66
2022/11/23 04:20:44;;;;;;;5.33;2.40;;;;;;;7.01;82.91;99057.69;4967729;28;20635;-66
2022/11/23 04:23:11;;;;;;;8.03;2.57;;;;;;;7.05;82.92;99064.72;4971989;28;20634;-66
2022/11/23 04:25:39;;;;;;;10.10;2.40;;;;;;;7.04;83.02;99062.97;4969704;28;20234;-66
2022/11/23 04:28:05;;;;;;;8.17;2.30;;;;;;;6.97;82.88;99048.88;4969718;28;20253;-66
2022/11/23 04:30:31;;;;;;;6.10;2.50;;;;;;;7.05;83.07;99056.81;4969977;28;20201;-66
2022/11/23 04:32:58;;;;;;;5.07;2.20;;;;;;;7.05;83.31;99062.97;4969386;28;20312;-65
2022/11/23 04:35:24;;;;;;;5.70;2.30;;;;;;;7.03;83.03;99054.19;4970498;28;20436;-66
2022/11/23 04:37:50;;;;;;;10.77;2.40;;;;;;;7.07;83.15;99065.59;4969937;28;20201;-66
2022/11/23 04:40:17;;;;;;;8.17;2.63;;;;;;;7.06;83.03;99059.47;4966562;28;20724;-65
2022/11/23 04:42:43;;;;;;;15.60;2.57;;;;;;;7.11;82.70;99059.50;4965830;28;20216;-65
2022/11/23 04:45:10;;;;;;;8.90;2.57;;;;;;;7.15;82.72;99064.78;4967745;28;20282;-66
2022/11/23 04:47:37;;;;;;;6.13;2.40;;;;;;;7.15;82.19;99062.16;4964367;28;20291;-65
2022/11/23 04:50:03;;;;;;;11.40;2.33;;;;;;;7.15;82.53;99056.00;4963986;28;20331;-66
2022/11/23 04:52:30;;;;;;;8.93;2.33;;;;;;;7.15;82.53;99062.16;4969428;28;20288;-66
2022/11/23 04:54:56;;;;;;;8.80;2.40;;;;;;;7.15;82.60;99058.63;4969903;28;20304;-66
2022/11/23 04:57:22;;;;;;;6.70;2.40;;;;;;;7.14;82.84;99060.38;4951739;28;20222;-66
2022/11/23 04:59:49;;;;;;;6.97;2.20;;;;;;;7.12;82.73;99067.41;4964088;28;20280;-65
2022/11/23 05:02:15;;;;;;;8.90;2.40;;;;;;;7.11;82.47;99070.03;4970588;28;20194;-66
2022/11/23 05:04:41;;;;;;;7.23;2.60;;;;;;;7.07;82.90;99068.25;4969877;28;20226;-66
2022/11/23 05:07:08;;;;;;;9.93;2.40;;;;;;;7.05;83.12;99062.97;4966414;28;20313;-66
2022/11/23 05:09:34;;;;;;;7.77;2.37;;;;;;;7.07;83.00;99057.72;4964866;28;20197;-66
2022/11/23 05:12:01;;;;;;;6.60;2.30;;;;;;;7.10;82.66;99063.00;4970226;28;20207;-66
2022/11/23 05:14:27;;;;;;;6.67;2.30;;;;;;;7.07;83.18;99057.72;4970278;28;20257;-66
2022/11/23 05:16:53;;;;;;;8.13;2.97;;;;;;;7.04;83.32;99058.56;4962186;28;20222;-66
2022/11/23 05:19:20;;;;;;;9.50;2.83;;;;;;;7.07;83.26;99060.34;4952353;28;20229;-66
2022/11/23 05:21:46;;;;;;;7.73;2.70;;;;;;;7.13;82.62;99070.91;4964064;28;20233;-66
2022/11/23 05:24:12;;;;;;;9.43;2.50;;;;;;;7.16;82.80;99065.66;4969236;28;20228;-66
2022/11/23 05:26:39;;;;;;;6.33;2.33;;;;;;;7.20;82.16;99067.44;4968805;28;20252;-66
2022/11/23 05:29:05;;;;;;;7.77;2.50;;;;;;;7.19;82.10;99071.81;4969183;28;20283;-66
2022/11/23 05:31:31;;;;;;;8.43;2.50;;;;;;;7.22;82.00;99069.22;4966908;28;20194;-65
2022/11/23 05:33:58;;;;;;;7.50;2.30;;;;;;;7.25;81.99;99064.84;4967715;28;20268;-65
2022/11/23 05:36:24;;;;;;;10.87;2.80;;;;;;;7.33;81.42;99074.53;4967941;28;20306;-66
2022/11/23 05:38:51;;;;;;;9.57;2.40;;;;;;;7.29;81.60;99070.13;4969883;28;20375;-66
2022/11/23 05:41:17;;;;;;;8.33;2.43;;;;;;;7.33;81.50;99068.41;4967725;28;20225;-65
2022/11/23 05:43:43;;;;;;;7.37;2.60;;;;;;;7.29;81.47;99078.03;4967494;28;20764;-66
2022/11/23 05:46:10;;;;;;;6.13;2.73;;;;;;;7.31;81.65;99084.19;4966762;28;20725;-67
2022/11/23 05:48:36;;;;;;;10.40;2.60;;;;;;;7.27;81.63;99082.41;4964599;28;20352;-66
2022/11/23 05:51:03;;;;;;;8.57;2.57;;;;;;;7.31;81.05;99076.28;4961619;28;20669;-66
2022/11/23 05:53:31;;;;;;;8.20;2.80;;;;;;;7.31;81.48;99086.81;4967661;28;20218;-66
2022/11/23 05:56:01;;;;;;;6.87;2.83;;;;;;;7.31;81.45;99078.03;4969555;28;20280;-66
2022/11/23 05:58:28;;;;;;;12.47;2.70;;;;;;;7.29;81.69;99092.97;4962759;28;20749;-66
2022/11/23 06:00:59;;;;;;;6.90;2.73;;;;;;;7.24;82.03;99087.66;4964139;28;20233;-65
2022/11/23 06:03:25;;;;;;;8.57;2.83;;;;;;;7.25;82.01;99080.66;4962806;28;20302;-65
2022/11/23 06:05:52;;;;;;;8.27;3.20;;;;;;;7.25;82.00;99093.81;4959908;28;20245;-65
2022/11/23 06:08:18;;;;;;;6.50;2.53;;;;;;;7.24;82.08;99085.03;4967094;28;20257;-65
2022/11/23 06:10:45;;;;;;;11.30;2.80;;;;;;;7.30;81.71;99092.09;4969851;28;20689;-65
2022/11/23 06:13:11;;;;;;;8.47;2.40;;;;;;;7.27;81.65;99087.69;4969131;28;20233;-65
2022/11/23 06:15:37;;;;;;;8.60;2.63;;;;;;;7.19;81.77;99084.97;4961645;28;20763;-66
2022/11/23 06:18:04;;;;;;;10.50;3.17;;;;;;;7.22;81.47;99082.41;4968160;28;20205;-66
2022/11/23 06:20:30;;;;;;;9.83;2.97;;;;;;;7.14;81.81;99091.09;4963060;28;20245;-66
2022/11/23 06:22:57;;;;;;;11.23;3.07;;;;;;;7.05;82.38;99083.16;4968120;28;20206;-66
2022/11/23 06:25:23;;;;;;;7.57;2.53;;;;;;;7.05;82.49;99085.78;4965289;28;20217;-66
2022/11/23 06:27:57;;;;;;;8.47;2.70;;;;;;;7.04;82.64;99091.91;4972278;28;20202;-65
2022/11/23 06:30:25;;;;;;;7.33;2.93;;;;;;;7.02;82.92;99088.41;4969171;28;20557;-65
2022/11/23 06:32:51;;;;;;;7.93;2.93;;;;;;;7.03;83.16;99096.31;4966191;28;20297;-65
2022/11/23 06:35:18;;;;;;;4.93;2.60;;;;;;;7.02;83.09;99093.66;4963864;28;20787;-66
2022/11/23 06:37:47;;;;;;;12.20;3.73;;;;;;;6.97;83.25;99093.63;4968637;28;20655;-65
2022/11/23 06:40:14;;;;;;;8.50;2.80;;;;;;;6.93;83.25;99096.22;4963770;28;20202;-66
2022/11/23 06:42:40;;;;;;;9.57;2.70;;;;;;;6.86;83.73;99092.69;4966237;28;20226;-65
2022/11/23 06:45:08;;;;;;;8.83;2.87;;;;;;;6.88;83.39;99107.63;4964677;28;20508;-65
2022/11/23 06:47:34;;;;;;;6.70;2.83;;;;;;;6.87;83.68;99104.97;4961375;28;20229;-65
2022/11/23 06:50:00;;;;;;;8.73;2.60;;;;;;;6.88;83.47;99104.09;4964100;28;20204;-65
2022/11/23 06:52:27;;;;;;;9.40;3.93;;;;;;;6.89;83.23;99106.75;4969988;28;20259;-65
2022/11/23 06:54:53;;;;;;;9.30;3.87;;;;;;;6.85;83.27;99107.59;4969353;28;20248;-65
2022/11/23 06:57:20;;;;;;;8.00;3.17;;;;;;;6.82;83.48;99109.31;4969542;28;20249;-65
2022/11/23 06:59:47;;;;;;;12.03;3.60;;;;;;;6.78;83.64;99096.97;4969746;28;20258;-65
2022/11/23 07:02:13;;;;;;;6.50;3.07;;;;;;;6.78;83.83;99110.13;4969534;28;20193;-65
2022/11/23 07:04:40;;;;;;;10.10;3.17;;;;;;;6.78;83.95;99118.03;4960617;28;20731;-65
2022/11/23 07:07:07;;;;;;;6.97;3.43;;;;;;;6.78;84.21;99113.66;4962621;28;20315;-65
2022/11/23 07:09:34;;;;;;;9.27;3.13;;;;;;;6.79;83.99;99115.41;4969292;28;20208;-65
2022/11/23 07:12:00;;;;;;;12.03;2.97;;;;;;;6.72;83.67;99108.34;4967146;28;20712;-65
2022/11/23 07:14:27;;;;;;;12.13;3.40;;;;;;;6.87;83.79;99119.00;4948790;28;20221;-65
2022/11/23 07:16:53;;;;;;;16.03;3.20;;;;;;;6.86;83.67;99116.38;4929075;28;20389;-65
2022/11/23 07:19:20;;;;;;;9.87;3.20;;;;;;;6.79;83.83;99120.69;4968100;28;20614;-65
2022/11/23 07:21:46;;;;;;;14.10;4.07;;;;;;;6.79;83.90;99127.69;4969921;28;20208;-65
2022/11/23 07:24:12;;;;;;;14.53;4.97;;;;;;;6.74;83.81;99119.75;4970396;28;20617;-65
2022/11/23 07:26:39;;;;;;;17.97;5.53;;;;;;;6.65;84.55;99117.06;4965952;28;20296;-65
2022/11/23 07:29:05;;;;;;;14.50;5.10;;;;;;;6.69;84.86;99120.59;4969288;28;20731;-65
2022/11/23 07:31:31;;;;;;;14.20;4.60;;;;;;;6.75;84.71;99123.28;4969474;28;20309;-65
2022/11/23 07:33:58;;;;;;;10.60;4.67;;;;;;;6.80;84.67;99126.81;4962642;28;20231;-65
2022/11/23 07:36:24;;;;;;;14.80;4.07;;;;;;;6.85;84.46;99128.66;4967168;28;20588;-65
2022/11/23 07:38:50;;;;;;;12.07;3.67;;;;;;;6.88;84.41;99133.03;4968329;28;20289;-65
2022/11/23 07:41:17;;;;;;;9.77;3.00;;;;;;;6.93;84.40;99133.97;4967184;28;20668;-65
2022/11/23 07:43:43;;;;;;;12.27;2.83;;;;;;;7.00;84.47;99134.88;4962099;28;20292;-65
2022/11/23 07:46:10;;;;;;;10.00;3.10;;;;;;;7.05;83.99;99134.03;4966929;28;20767;-65
2022/11/23 07:48:36;;;;;;;6.60;2.90;;;;;;;7.10;83.81;99132.31;4965860;28;21073;-65
2022/11/23 07:51:02;;;;;;;8.93;2.60;;;;;;;7.14;83.55;99128.84;4961129;28;20753;-65
2022/11/23 07:53:29;;;;;;;15.33;3.77;;;;;;;7.19;83.20;99132.38;4971712;28;20229;-65
2022/11/23 07:55:58;;;;;;;8.13;3.20;;;;;;;7.29;82.75;99137.72;4965330;28;21580;-65
2022/11/23 07:58:24;;;;;;;10.87;3.40;;;;;;;7.31;82.43;99142.13;4965796;28;20648;-65
2022/11/23 08:00:51;;;;;;;15.10;3.73;;;;;;;7.33;82.33;99135.13;4966722;28;20575;-65
2022/11/23 08:03:18;;;;;;;10.30;4.73;;;;;;;7.43;82.01;99136.03;4966987;28;20290;-65
2022/11/23 08:05:54;;;;;;;12.30;4.30;;;;;;;7.55;81.88;99144.00;4964665;28;20215;-65
2022/11/23 08:08:20;;;;;;;10.63;4.33;;;;;;;7.65;81.31;99147.59;4965499;28;20667;-65
2022/11/23 08:10:46;;;;;;;6.30;3.20;;;;;;;7.68;81.43;99137.94;4965991;28;20206;-65
2022/11/23 08:13:20;;;;;;;6.23;3.20;;;;;;;7.81;80.62;99144.13;4967626;28;20210;-65
2022/11/23 08:15:46;;;;;;;8.13;2.90;;;;;;;7.91;79.88;99140.66;4966382;28;20304;-65
2022/11/23 08:18:19;;;;;;;7.80;3.00;;;;;;;8.07;78.90;99141.63;4970509;28;20697;-65
2022/11/23 08:20:45;;;;;;;10.83;3.00;;;;;;;8.24;78.04;99146.94;4967733;28;20207;-65
2022/11/23 08:23:12;;;;;;;5.77;2.63;;;;;;;8.37;77.51;99146.97;4968836;28;20286;-65
2022/11/23 08:25:38;;;;;;;7.87;2.80;;;;;;;8.43;77.28;99135.59;4966799;28;20209;-65
2022/11/23 08:28:05;;;;;;;13.30;3.83;;;;;;;8.49;76.90;99140.88;4968129;28;20224;-65
2022/11/23 08:30:32;;;;;;;7.60;2.80;;;;;;;8.53;76.52;99129.44;4969261;28;20257;-64
2022/11/23 08:33:03;;;;;;;21.63;4.43;;;;;;;8.64;76.26;99140.88;4967724;28;20673;-64
2022/11/23 08:35:29;;;;;;;16.57;4.03;;;;;;;8.73;75.39;99130.31;4968674;28;20225;-63
2022/11/23 08:37:56;;;;;;;8.57;3.10;;;;;;;8.78;74.79;99144.41;4968201;28;20207;-63
2022/11/23 08:40:22;;;;;;;13.47;3.33;;;;;;;8.72;74.54;99133.84;4968931;28;20654;-64
2022/11/23 08:42:51;;;;;;;20.27;3.63;;;;;;;8.61;75.31;99132.97;4966167;28;20610;-64
2022/11/23 08:45:17;;;;;;;13.37;3.17;;;;;;;8.47;75.75;99135.59;4966970;28;20254;-64
2022/11/23 08:47:44;;;;;;;9.70;2.80;;;;;;;8.41;76.30;99148.78;4966412;28;20259;-64
2022/11/23 08:50:10;;;;;;;5.10;2.37;;;;;;;8.41;76.50;99146.13;4963445;28;20458;-64
2022/11/23 08:52:36;;;;;;;5.80;2.87;;;;;;;8.54;76.01;99146.16;4966525;28;20257;-63
2022/11/23 08:55:03;;;;;;;7.97;2.80;;;;;;;8.53;75.45;99137.34;4963584;28;20218;-63
2022/11/23 08:57:30;;;;;;;8.83;2.67;;;;;;;8.48;75.82;99140.00;4966734;28;20229;-64
2022/11/23 08:59:56;;;;;;;11.87;2.87;;;;;;;8.43;75.96;99159.34;4967514;28;20198;-64
2022/11/23 09:02:23;;;;;;;16.27;4.70;;;;;;;8.31;76.18;99146.06;4968106;28;20217;-64
2022/11/23 09:04:49;;;;;;;16.50;3.37;;;;;;;8.26;76.96;99150.44;4967394;28;20202;-63
2022/11/23 09:07:15;;;;;;;9.03;2.90;;;;;;;8.21;76.77;99146.91;4962963;28;20264;-64
2022/11/23 09:09:42;;;;;;;5.57;2.20;;;;;;;8.24;76.36;99150.44;4969216;28;20260;-64
2022/11/23 09:12:08;;;;;;;10.70;2.80;;;;;;;8.30;75.32;99147.81;4968564;28;20201;-64
2022/11/23 09:14:35;;;;;;;8.70;2.60;;;;;;;8.30;75.28;99149.56;4969012;28;20223;-64
2022/11/23 09:17:02;;;;;;;7.83;2.40;;;;;;;8.29;75.13;99139.91;4965383;28;20602;-64
2022/11/23 09:19:28;;;;;;;9.70;2.97;;;;;;;8.31;75.79;99149.56;4969914;28;20200;-64
2022/11/23 09:21:56;;;;;;;10.83;2.80;;;;;;;8.41;75.31;99142.63;4966328;28;20732;-64
2022/11/23 09:24:24;;;;;;;9.63;3.37;;;;;;;8.51;75.10;99146.16;4970338;28;20633;-64
2022/11/23 09:26:50;;;;;;;8.93;3.27;;;;;;;8.62;75.31;99147.91;4963969;28;20321;-65
2022/11/23 09:29:17;;;;;;;10.07;2.83;;;;;;;8.81;74.34;99148.84;4966921;28;20210;-64
2022/11/23 09:31:43;;;;;;;7.63;2.70;;;;;;;8.85;74.34;99142.66;4967833;28;20289;-64
2022/11/23 09:34:12;;;;;;;10.17;2.97;;;;;;;8.84;74.10;99137.38;4970422;28;20340;-64
2022/11/23 09:36:39;;;;;;;7.23;2.60;;;;;;;8.84;74.57;99142.66;4961301;28;20339;-64
2022/11/23 09:39:05;;;;;;;5.40;2.03;;;;;;;8.80;74.44;99136.47;4968711;28;20204;-63
2022/11/23 09:41:53;;;;;;;8.37;2.80;;;;;;;8.81;74.11;99151.47;4968483;28;20238;-65
2022/11/23 09:44:41;;;;;;;10.43;2.57;;;;;;;9.01;74.05;99152.34;4968028;28;20235;-64
2022/11/23 09:47:16;;;;;;;10.03;2.37;;;;;;;9.28;72.54;99154.09;4963722;28;20282;-65
2022/11/23 09:50:04;;;;;;;4.70;2.10;;;;;;;9.57;71.45;99153.13;4968242;28;20260;-65
2022/11/23 09:52:31;;;;;;;5.83;2.13;;;;;;;9.75;71.20;99142.50;4967731;28;20212;-65
2022/11/23 09:55:05;;;;;;;7.60;2.40;;;;;;;10.16;69.84;99145.00;4967660;28;20319;-64
2022/11/23 09:57:34;;;;;;;7.53;2.00;;;;;;;10.64;67.90;99151.78;4967498;28;20232;-65
2022/11/23 10:00:15;;;;;;;9.17;2.17;;;;;;;10.99;66.86;99148.88;4967211;28;20535;-65
2022/11/23 10:02:42;;;;;;;9.60;2.37;;;;;;;11.41;65.22;99144.06;4966570;28;20667;-64
2022/11/23 10:05:18;;;;;;;8.50;2.20;;;;;;;11.59;63.09;99138.56;4965870;28;20321;-65
2022/11/23 10:07:51;;;;;;;7.30;2.00;;;;;;;11.76;62.64;99148.13;4963845;28;20236;-65
2022/11/23 10:10:38;;;;;;;9.50;2.30;;;;;;;11.85;62.72;99150.69;4966586;28;20284;-66
2022/11/23 10:13:18;;;;;;;9.67;1.93;;;;;;;11.78;62.73;99144.59;4966262;28;20196;-66
2022/11/23 10:16:00;;;;;;;7.43;2.23;;;;;;;11.46;63.04;99134.31;4957207;28;20348;-66
2022/11/23 10:18:46;;;;;;;8.47;2.40;;;;;;;11.06;64.10;99143.53;4963860;28;20713;-66
2022/11/23 10:21:15;;;;;;;5.80;2.53;;;;;;;10.67;65.09;99141.16;4959744;28;20203;-66
2022/11/23 10:23:51;;;;;;;6.67;2.40;;;;;;;10.50;66.03;99132.47;4956506;28;20203;-65
2022/11/23 10:26:23;;;;;;;6.37;2.13;;;;;;;10.30;66.74;99142.28;4965330;28;20300;-66
2022/11/23 10:28:50;;;;;;;12.13;4.87;;;;;;;10.35;67.02;99136.06;4973950;28;20228;-65
2022/11/23 10:31:20;;;;;;;6.73;1.93;;;;;;;10.46;66.84;99133.41;4966584;28;20264;-65
2022/11/23 10:34:03;;;;;;;8.50;2.30;;;;;;;10.62;66.00;99128.84;4972174;28;20201;-65
2022/11/23 10:36:29;;;;;;;10.83;2.37;;;;;;;11.02;65.60;99126.78;4963810;28;20296;-64
2022/11/23 10:38:59;;;;;;;12.57;2.47;;;;;;;11.18;64.76;99130.16;4972045;28;20260;-64
2022/11/23 10:41:28;;;;;;;11.70;2.60;;;;;;;11.05;64.32;99128.53;4960456;28;20234;-64
2022/11/23 10:44:14;;;;;;;13.70;2.47;;;;;;;10.89;64.53;99123.38;4971608;28;20292;-64
2022/11/23 10:46:41;;;;;;;8.63;2.43;;;;;;;10.89;64.88;99130.44;4967845;28;20264;-65
2022/11/23 10:49:28;;;;;;;8.40;2.07;;;;;;;10.98;64.96;99130.34;4966228;28;20660;-64
2022/11/23 10:51:57;;;;;;;7.03;2.20;;;;;;;11.08;64.91;99125.84;4970122;28;20969;-64
2022/11/23 10:54:28;;;;;;;7.50;1.80;;;;;;;11.02;64.43;99113.53;4969939;28;20230;-64
2022/11/23 10:56:55;;;;;;;8.70;2.27;;;;;;;10.93;64.72;99117.16;4968871;28;20221;-65
2022/11/23 10:59:25;;;;;;;7.97;2.10;;;;;;;10.79;65.23;99107.53;4971791;28;20230;-65
2022/11/23 11:02:19;;;;;;;6.53;2.10;;;;;;;10.68;65.93;99119.09;4968205;28;20209;-64
2022/11/23 11:04:47;;;;;;;7.73;2.00;;;;;;;10.56;65.39;99098.03;4968116;28;20265;-65
2022/11/23 11:07:27;;;;;;;5.90;2.20;;;;;;;10.59;65.50;99108.59;4964305;28;20213;-64
2022/11/23 11:09:59;;;;;;;6.97;2.00;;;;;;;10.61;65.42;99101.50;4968019;28;20229;-65
2022/11/23 11:12:27;;;;;;;7.30;1.93;;;;;;;10.57;65.96;99102.41;4964531;28;20324;-64
2022/11/23 11:15:15;;;;;;;8.37;1.87;;;;;;;10.67;64.93;99093.50;4970953;28;20213;-64
2022/11/23 11:17:41;;;;;;;6.43;2.20;;;;;;;10.68;64.96;99097.03;4957180;28;20316;-64
2022/11/23 11:20:26;;;;;;;5.77;1.77;;;;;;;10.61;64.81;99085.63;4971057;28;20647;-65
2022/11/23 11:23:15;;;;;;;5.87;1.97;;;;;;;10.63;65.27;99083.84;4967536;28;20263;-64
2022/11/23 11:25:41;;;;;;;5.97;1.80;;;;;;;10.58;63.91;99079.47;4957037;28;20281;-64
2022/11/23 11:28:35;;;;;;;8.50;1.70;;;;;;;10.71;63.24;99069.66;4970966;28;20285;-65
2022/11/23 11:31:24;;;;;;;5.27;1.90;;;;;;;10.72;62.27;99056.41;4969077;28;20721;-64
2022/11/23 11:33:58;;;;;;;7.80;1.70;;;;;;;10.64;62.97;99059.13;4962885;28;20203;-63
2022/11/23 11:36:31;;;;;;;6.63;1.80;;;;;;;10.65;62.95;99052.06;4963382;28;20224;-65
2022/11/23 11:39:01;;;;;;;7.57;1.80;;;;;;;10.65;63.46;99052.94;4967194;28;20230;-64
2022/11/23 11:41:46;;;;;;;6.67;1.80;;;;;;;10.62;63.09;99047.66;4964627;28;20208;-64
2022/11/23 11:44:19;;;;;;;5.00;1.80;;;;;;;10.65;62.53;99047.63;4966236;28;20203;-64
2022/11/23 11:46:52;;;;;;;6.63;1.73;;;;;;;10.68;61.69;99044.97;4960775;28;20226;-64
2022/11/23 11:49:43;;;;;;;7.40;1.70;;;;;;;10.60;62.02;99030.03;4966451;28;20244;-65
2022/11/23 11:52:17;;;;;;;9.10;1.80;;;;;;;10.65;62.51;99034.41;4967166;28;20202;-65